Time;durP1;ratioP1;P1;durP2;ratioP2;P2;SDS_P1;SDS_P2;PMS_P1;PMS_P2;Temp;Humidity;BMP_temperature;BMP_pressure;BME280_temperature;BME280_humidity;BME280_pressure;Samples;Min_cycle;Max_cycle;Signal;HPM_P1;HPM_P2
2022/07/13 00:00:48;;;;;;;4.10;2.60;;;;;;;15.10;69.43;98552.35;106099;1279;25368;-75
2022/07/13 00:03:16;;;;;;;3.00;2.10;;;;;;;15.08;69.48;98551.20;106180;1279;24473;-76
2022/07/13 00:05:42;;;;;;;3.40;2.00;;;;;;;15.07;69.02;98548.88;105915;1277;137798;-76
2022/07/13 00:08:10;;;;;;;3.10;1.90;;;;;;;15.05;68.98;98549.38;106126;1279;26573;-76
2022/07/13 00:10:37;;;;;;;6.10;1.80;;;;;;;15.05;69.04;98547.08;105787;1278;138098;-78
2022/07/13 00:13:03;;;;;;;2.20;1.90;;;;;;;15.05;68.87;98547.08;105999;1278;23076;-76
2022/07/13 00:15:29;;;;;;;4.10;2.30;;;;;;;15.05;68.91;98544.88;106077;1278;22731;-76
2022/07/13 00:17:56;;;;;;;2.50;2.20;;;;;;;15.03;68.82;98547.95;105866;1277;137075;-77
2022/07/13 00:20:22;;;;;;;3.10;2.20;;;;;;;15.02;68.61;98551.41;106610;1277;25385;-77
2022/07/13 00:22:48;;;;;;;9.60;3.30;;;;;;;14.98;68.79;98547.95;105976;1277;137295;-77
2022/07/13 00:25:15;;;;;;;3.90;2.30;;;;;;;14.95;68.94;98545.80;106285;1277;22837;-76
2022/07/13 00:27:41;;;;;;;4.00;2.00;;;;;;;14.92;68.89;98542.71;106266;1277;137292;-76
2022/07/13 00:30:11;;;;;;;2.40;2.00;;;;;;;14.90;68.53;98538.05;105861;1278;24309;-77
2022/07/13 00:32:37;;;;;;;4.10;2.10;;;;;;;14.91;68.37;98544.02;105963;1277;24186;-77
2022/07/13 00:35:05;;;;;;;4.80;2.40;;;;;;;14.90;68.22;98540.90;105781;1277;137253;-77
2022/07/13 00:37:31;;;;;;;3.20;2.20;;;;;;;14.89;68.44;98544.91;105970;1278;24211;-76
2022/07/13 00:39:58;;;;;;;3.20;2.30;;;;;;;14.86;68.11;98539.36;106014;1277;137365;-76
2022/07/13 00:42:27;;;;;;;4.20;2.50;;;;;;;14.83;68.17;98538.81;105951;1277;22576;-76
2022/07/13 00:44:54;;;;;;;6.90;2.70;;;;;;;14.78;68.21;98533.20;106701;1277;24128;-76
2022/07/13 00:47:20;;;;;;;3.80;2.40;;;;;;;14.74;68.26;98535.77;106219;1277;137253;-76
2022/07/13 00:49:48;;;;;;;3.30;2.40;;;;;;;14.69;68.58;98534.77;106050;1277;25441;-76
2022/07/13 00:52:15;;;;;;;2.80;2.40;;;;;;;14.62;68.78;98537.66;105825;1278;138072;-76
2022/07/13 00:54:43;;;;;;;5.60;2.50;;;;;;;14.58;68.81;98536.98;106018;1277;22551;-77
2022/07/13 00:57:13;;;;;;;4.20;2.50;;;;;;;14.54;69.03;98541.48;105832;1278;22610;-76
2022/07/13 00:59:42;;;;;;;4.30;2.50;;;;;;;14.45;69.42;98541.13;105948;1277;137723;-76
2022/07/13 01:02:24;;;;;;;3.00;2.30;;;;;;;14.32;69.91;98542.99;106465;1277;25367;-75
2022/07/13 01:04:53;;;;;;;5.20;2.50;;;;;;;14.18;70.34;98544.08;105963;1277;137891;-76
2022/07/13 01:07:19;;;;;;;5.20;2.30;;;;;;;14.05;70.70;98540.95;106166;1277;22579;-75
2022/07/13 01:09:46;;;;;;;3.20;2.40;;;;;;;13.94;71.22;98537.98;106031;1277;137415;-76
2022/07/13 01:12:12;;;;;;;4.00;2.60;;;;;;;13.83;71.63;98539.58;107205;1277;22670;-76
2022/07/13 01:14:39;;;;;;;3.90;2.50;;;;;;;13.75;71.96;98535.45;106416;1278;24239;-76
2022/07/13 01:17:06;;;;;;;4.60;2.60;;;;;;;13.65;72.32;98533.42;105924;1278;137824;-76
2022/07/13 01:19:36;;;;;;;4.80;2.00;;;;;;;13.58;72.63;98532.13;105914;1277;23961;-77
2022/07/13 01:22:03;;;;;;;6.00;2.90;;;;;;;13.51;72.83;98531.96;105965;1277;137617;-77
2022/07/13 01:24:30;;;;;;;3.30;2.30;;;;;;;13.46;73.16;98526.06;106217;1277;22609;-75
2022/07/13 01:26:59;;;;;;;3.80;2.40;;;;;;;13.39;73.32;98529.02;105955;1277;22785;-76
2022/07/13 01:29:26;;;;;;;;;;;;;;;13.33;73.56;98526.79;106169;1277;138126;-76
2022/07/13 01:31:59;;;;;;;4.40;2.40;;;;;;;13.29;73.46;98529.47;105934;1278;22569;-77
2022/07/13 01:34:29;;;;;;;3.60;2.10;;;;;;;13.28;73.50;98529.13;105955;1279;137426;-76
2022/07/13 01:36:59;;;;;;;4.80;2.20;;;;;;;13.28;73.69;98528.09;106015;1279;23205;-76
2022/07/13 01:39:40;;;;;;;3.50;2.10;;;;;;;13.20;73.90;98530.86;106178;1277;137356;-76
2022/07/13 01:42:06;;;;;;;5.10;2.90;;;;;;;13.13;74.22;98535.00;106172;1277;22682;-76
2022/07/13 01:44:33;;;;;;;5.30;2.20;;;;;;;13.07;74.31;98536.48;106013;1277;23083;-80
2022/07/13 01:47:07;;;;;;;5.60;2.50;;;;;;;13.05;74.28;98537.56;105844;1277;138156;-77
2022/07/13 01:49:35;;;;;;;5.30;2.70;;;;;;;13.06;74.39;98533.53;106221;1277;22537;-77
2022/07/13 01:52:02;;;;;;;5.70;2.90;;;;;;;13.08;74.40;98537.48;105836;1277;137706;-76
2022/07/13 01:54:32;;;;;;;4.10;2.40;;;;;;;13.05;74.27;98530.41;105735;1278;22852;-75
2022/07/13 01:57:01;;;;;;;3.50;2.60;;;;;;;13.05;74.17;98535.09;105675;1279;24301;-76
2022/07/13 01:59:28;;;;;;;4.00;2.70;;;;;;;12.99;74.39;98531.61;105704;1278;137581;-77
2022/07/13 02:01:54;;;;;;;3.00;2.40;;;;;;;12.98;74.64;98532.52;105719;1278;25282;-79
2022/07/13 02:04:20;;;;;;;2.50;2.00;;;;;;;12.98;74.52;98537.66;106628;1278;137473;-76
2022/07/13 02:06:47;;;;;;;3.50;2.20;;;;;;;12.98;74.44;98534.16;105889;1279;22550;-76
2022/07/13 02:09:13;;;;;;;2.80;2.40;;;;;;;12.98;74.48;98534.48;105926;1278;22566;-76
2022/07/13 02:11:53;;;;;;;3.00;2.40;;;;;;;12.96;74.36;98531.80;105632;1280;138302;-76
2022/07/13 02:14:23;;;;;;;6.80;2.40;;;;;;;12.96;74.48;98527.91;105744;1279;22579;-76
2022/07/13 02:16:50;;;;;;;6.20;2.90;;;;;;;12.96;74.41;98531.64;105715;1277;138068;-76
2022/07/13 02:19:23;;;;;;;4.60;2.60;;;;;;;12.96;74.49;98524.54;105776;1277;22566;-78
2022/07/13 02:21:50;;;;;;;11.80;2.70;;;;;;;12.95;74.39;98520.35;106246;1277;137449;-76
2022/07/13 02:24:20;;;;;;;3.50;2.70;;;;;;;12.94;74.16;98523.74;106164;1279;24387;-76
2022/07/13 02:26:46;;;;;;;6.50;2.50;;;;;;;12.92;74.38;98520.21;105853;1279;22572;-76
2022/07/13 02:29:16;;;;;;;4.90;2.30;;;;;;;12.92;74.33;98521.70;105787;1279;138450;-76
2022/07/13 02:31:42;;;;;;;5.00;2.00;;;;;;;12.90;74.41;98521.41;105952;1279;25376;-76
2022/07/13 02:34:09;;;;;;;2.90;2.40;;;;;;;12.89;74.45;98520.91;105572;1280;137784;-76
2022/07/13 02:36:35;;;;;;;5.10;2.20;;;;;;;12.88;74.31;98523.40;106507;1278;22562;-76
2022/07/13 02:39:01;;;;;;;5.10;2.40;;;;;;;12.88;74.47;98520.02;105870;1278;23300;-76
2022/07/13 02:41:30;;;;;;;7.90;2.90;;;;;;;12.86;74.36;98520.16;105985;1279;137674;-79
2022/07/13 02:43:58;;;;;;;4.30;2.50;;;;;;;12.83;74.28;98520.41;106018;1278;22553;-78
2022/07/13 02:46:25;;;;;;;5.10;2.00;;;;;;;12.82;74.54;98521.42;105643;1279;137920;-78
2022/07/13 02:48:51;;;;;;;5.10;2.00;;;;;;;12.81;74.23;98524.15;106612;1277;25420;-76
2022/07/13 02:51:17;;;;;;;5.80;2.20;;;;;;;12.79;74.60;98522.27;106888;1279;22553;-77
2022/07/13 02:53:44;;;;;;;5.50;2.50;;;;;;;12.77;74.47;98523.47;105942;1278;137327;-78
2022/07/13 02:56:10;;;;;;;5.60;2.30;;;;;;;12.75;74.49;98526.66;106450;1277;24431;-76
2022/07/13 02:58:37;;;;;;;3.90;2.10;;;;;;;12.73;74.72;98527.64;106703;1277;138432;-76
2022/07/13 03:01:03;;;;;;;5.60;2.20;;;;;;;12.72;74.87;98526.95;106157;1278;22718;-76
2022/07/13 03:03:29;;;;;;;7.20;2.30;;;;;;;12.71;74.66;98527.61;105776;1279;22838;-78
2022/07/13 03:05:57;;;;;;;6.90;2.40;;;;;;;12.69;74.71;98526.60;105742;1279;137338;-76
2022/07/13 03:08:24;;;;;;;7.70;2.40;;;;;;;12.67;74.80;98526.09;105962;1278;24379;-77
2022/07/13 03:10:50;;;;;;;7.50;2.50;;;;;;;12.64;74.79;98523.54;105716;1279;137355;-77
2022/07/13 03:13:17;;;;;;;6.20;2.40;;;;;;;12.61;74.75;98528.71;106285;1278;22811;-76
2022/07/13 03:15:43;;;;;;;5.60;2.50;;;;;;;12.60;75.14;98534.00;105993;1277;137649;-77
2022/07/13 03:18:09;;;;;;;6.10;2.20;;;;;;;12.58;75.06;98536.76;106373;1278;25380;-77
2022/07/13 03:20:36;;;;;;;4.10;1.80;;;;;;;12.57;75.36;98536.58;105759;1278;23424;-77
2022/07/13 03:23:03;;;;;;;8.20;2.80;;;;;;;12.54;75.25;98539.11;105846;1278;138090;-76
2022/07/13 03:25:30;;;;;;;5.80;2.80;;;;;;;12.53;75.30;98540.95;106094;1279;25503;-76
2022/07/13 03:27:56;;;;;;;3.60;2.20;;;;;;;12.53;75.46;98547.67;105868;1279;139520;-76
2022/07/13 03:30:23;;;;;;;5.40;2.80;;;;;;;12.53;75.28;98548.23;105984;1278;22645;-76
2022/07/13 03:32:50;;;;;;;4.70;2.40;;;;;;;12.54;75.39;98546.66;105380;1281;762160;-76
2022/07/13 03:35:16;;;;;;;5.50;2.70;;;;;;;12.54;75.65;98545.83;105795;1279;137331;-76
2022/07/13 03:37:45;;;;;;;5.70;2.80;;;;;;;12.53;75.50;98544.67;105992;1278;22566;-76
2022/07/13 03:40:12;;;;;;;5.80;2.60;;;;;;;12.52;75.89;98540.14;105857;1279;137417;-76
2022/07/13 03:42:39;;;;;;;9.70;2.50;;;;;;;12.53;75.94;98543.27;106115;1279;22623;-76
2022/07/13 03:45:06;;;;;;;4.60;2.40;;;;;;;12.56;76.00;98535.98;105476;1280;24294;-76
2022/07/13 03:47:33;;;;;;;4.40;2.20;;;;;;;12.59;75.98;98537.64;106168;1280;137088;-76
2022/07/13 03:50:00;;;;;;;4.80;2.50;;;;;;;12.61;76.38;98542.36;105989;1280;24319;-76
2022/07/13 03:52:26;;;;;;;4.70;2.50;;;;;;;12.63;76.05;98539.33;105707;1279;137552;-76
2022/07/13 03:54:53;;;;;;;5.70;2.60;;;;;;;12.64;76.02;98542.90;106013;1279;22718;-76
2022/07/13 03:57:20;;;;;;;5.20;2.40;;;;;;;12.67;76.33;98548.05;105771;1279;24326;-76
2022/07/13 03:59:46;;;;;;;4.40;2.60;;;;;;;12.71;76.06;98548.15;105908;1279;138042;-76
2022/07/13 04:02:13;;;;;;;7.60;3.00;;;;;;;12.76;76.29;98546.84;105965;1279;22620;-76
2022/07/13 04:04:40;;;;;;;7.00;2.90;;;;;;;12.79;76.44;98547.92;105809;1279;137452;-76
2022/07/13 04:07:22;;;;;;;5.70;2.80;;;;;;;12.84;76.21;98548.83;106012;1281;23143;-76
2022/07/13 04:09:48;;;;;;;6.60;2.50;;;;;;;12.87;76.41;98544.73;106058;1280;137230;-76
2022/07/13 04:12:22;;;;;;;6.50;2.40;;;;;;;12.92;76.36;98546.02;106061;1280;24260;-76
2022/07/13 04:14:49;;;;;;;8.10;2.70;;;;;;;12.97;76.48;98547.60;106073;1279;29679;-76
2022/07/13 04:17:17;;;;;;;4.40;2.60;;;;;;;13.02;76.62;98544.59;105923;1281;137479;-76
2022/07/13 04:19:44;;;;;;;8.30;3.30;;;;;;;13.05;76.62;98547.36;106135;1281;22564;-76
2022/07/13 04:22:10;;;;;;;6.90;3.80;;;;;;;13.08;76.56;98544.09;105962;1281;137663;-76
2022/07/13 04:24:38;;;;;;;9.00;3.40;;;;;;;13.12;76.62;98545.93;105968;1280;22543;-76
2022/07/13 04:27:04;;;;;;;5.70;2.80;;;;;;;13.16;76.76;98548.82;106484;1280;22601;-76
2022/07/13 04:29:30;;;;;;;7.50;2.80;;;;;;;13.21;76.68;98550.06;106173;1280;138410;-76
2022/07/13 04:31:57;;;;;;;7.30;2.70;;;;;;;13.26;76.64;98549.95;106808;1280;22610;-76
2022/07/13 04:34:23;;;;;;;3.70;2.20;;;;;;;13.30;76.78;98548.08;106318;1280;137510;-76
2022/07/13 04:36:50;;;;;;;3.80;2.30;;;;;;;13.35;76.82;98545.34;105990;1281;23604;-76
2022/07/13 04:39:16;;;;;;;4.80;2.20;;;;;;;13.41;76.82;98548.02;106077;1281;24283;-76
2022/07/13 04:41:42;;;;;;;6.30;2.40;;;;;;;13.48;76.77;98545.17;106014;1281;138454;-77
2022/07/13 04:44:09;;;;;;;5.00;2.40;;;;;;;13.55;76.84;98554.36;106331;1279;22660;-77
2022/07/13 04:46:36;;;;;;;5.80;2.20;;;;;;;13.61;76.70;98557.64;105816;1280;137218;-77
2022/07/13 04:49:02;;;;;;;4.40;2.50;;;;;;;13.67;76.36;98566.83;105904;1280;25261;-76
2022/07/13 04:51:29;;;;;;;5.90;2.40;;;;;;;13.72;76.13;98566.70;105942;1280;24447;-76
2022/07/13 04:53:57;;;;;;;5.40;2.50;;;;;;;13.77;75.93;98560.00;106170;1280;138599;-76
2022/07/13 04:56:23;;;;;;;3.60;2.40;;;;;;;13.84;75.87;98556.91;105967;1281;22586;-76
2022/07/13 04:58:49;;;;;;;5.50;2.70;;;;;;;13.90;75.70;98565.56;106277;1281;137269;-75
2022/07/13 05:01:30;;;;;;;5.40;2.60;;;;;;;13.96;75.63;98567.63;106287;1281;25549;-76
2022/07/13 05:04:00;;;;;;;;;;;;;;;14.01;75.59;98562.14;106016;1279;137459;-76
2022/07/13 05:06:27;;;;;;;6.40;2.50;;;;;;;14.06;75.41;98561.11;106272;1279;23470;-76
2022/07/13 05:08:54;;;;;;;4.30;2.30;;;;;;;14.11;75.23;98554.18;105856;1279;22643;-76
2022/07/13 05:11:20;;;;;;;4.60;2.10;;;;;;;14.17;75.31;98551.86;106096;1279;137337;-76
2022/07/13 05:13:47;;;;;;;5.30;2.70;;;;;;;14.25;75.19;98559.46;106189;1279;22687;-76
2022/07/13 05:16:14;;;;;;;7.70;2.90;;;;;;;14.32;75.12;98566.29;105770;1278;137559;-76
2022/07/13 05:18:40;;;;;;;4.00;2.70;;;;;;;14.38;75.01;98560.17;105863;1280;25384;-76
2022/07/13 05:21:11;;;;;;;5.60;3.20;;;;;;;14.45;75.00;98563.98;106149;1280;25333;-77
2022/07/13 05:23:38;;;;;;;4.20;2.40;;;;;;;14.54;74.69;98563.09;106257;1280;138095;-76
2022/07/13 05:26:05;;;;;;;4.90;2.50;;;;;;;14.61;74.60;98562.71;106040;1279;24451;-76
2022/07/13 05:28:32;;;;;;;4.40;2.20;;;;;;;14.68;74.39;98560.77;105867;1279;137459;-77
2022/07/13 05:30:59;;;;;;;3.90;2.60;;;;;;;14.75;74.20;98557.10;105902;1279;23190;-78
2022/07/13 05:33:26;;;;;;;4.80;2.30;;;;;;;14.83;74.34;98555.85;106002;1279;22553;-78
2022/07/13 05:35:53;;;;;;;2.80;2.50;;;;;;;14.90;74.00;98560.59;105686;1280;138016;-77
2022/07/13 05:38:19;;;;;;;6.30;2.40;;;;;;;14.97;73.89;98560.77;105879;1279;22570;-77
2022/07/13 05:40:46;;;;;;;6.60;2.50;;;;;;;15.05;73.81;98558.09;107275;1280;138244;-77
2022/07/13 05:43:14;;;;;;;5.70;2.30;;;;;;;15.14;73.95;98558.45;106420;1280;22701;-75
2022/07/13 05:45:40;;;;;;;3.10;2.30;;;;;;;15.22;73.51;98566.45;105975;1279;137381;-76
2022/07/13 05:48:08;;;;;;;5.90;2.20;;;;;;;15.30;73.57;98566.36;106389;1282;22575;-76
2022/07/13 05:50:34;;;;;;;9.10;3.30;;;;;;;15.38;73.34;98570.09;106588;1282;22723;-76
2022/07/13 05:53:01;;;;;;;3.10;2.30;;;;;;;15.45;73.08;98572.23;106328;1281;136962;-77
2022/07/13 05:55:29;;;;;;;4.20;2.00;;;;;;;15.54;73.11;98571.96;107163;1279;23234;-76
2022/07/13 05:57:56;;;;;;;7.90;2.70;;;;;;;15.63;73.30;98571.58;106941;1280;137589;-77
2022/07/13 06:00:24;;;;;;;4.80;2.70;;;;;;;15.72;72.69;98572.23;106977;1280;25262;-77
2022/07/13 06:02:50;;;;;;;2.80;2.10;;;;;;;15.78;72.46;98569.67;106741;1280;25389;-76
2022/07/13 06:05:17;;;;;;;4.60;2.60;;;;;;;15.84;72.15;98569.39;106579;1280;138347;-78
2022/07/13 06:07:44;;;;;;;3.50;2.10;;;;;;;15.90;71.76;98571.69;106386;1279;23140;-77
2022/07/13 06:10:10;;;;;;;5.90;2.20;;;;;;;15.98;72.12;98565.08;107593;1279;137635;-77
2022/07/13 06:12:53;;;;;;;4.00;2.50;;;;;;;16.07;71.71;98566.48;106986;1279;22736;-77
2022/07/13 06:15:22;;;;;;;4.50;2.70;;;;;;;16.15;71.44;98567.85;106264;1279;24077;-77
2022/07/13 06:17:50;;;;;;;4.90;2.20;;;;;;;16.22;71.69;98559.69;107052;1280;137342;-77
2022/07/13 06:20:16;;;;;;;4.10;2.20;;;;;;;16.30;71.42;98558.34;106780;1279;23303;-76
2022/07/13 06:25:45;;;;;;;5.00;1.90;;;;;;;16.48;71.35;98558.51;106774;1279;22712;-77
2022/07/13 06:28:13;;;;;;;5.50;2.30;;;;;;;16.57;70.71;98560.33;107005;1279;138290;-76
2022/07/13 06:30:40;;;;;;;5.80;2.40;;;;;;;16.65;70.83;98558.09;106707;1280;22595;-77
2022/07/13 06:33:07;;;;;;;5.10;2.00;;;;;;;16.72;70.53;98558.65;106603;1279;22608;-77
2022/07/13 06:35:33;;;;;;;4.70;2.50;;;;;;;16.78;70.24;98557.04;106350;1280;137948;-77
2022/07/13 06:37:59;;;;;;;6.90;2.90;;;;;;;16.84;70.01;98556.92;106174;1279;22576;-76
2022/07/13 06:40:26;;;;;;;3.50;1.90;;;;;;;16.92;70.11;98558.42;106352;1279;138430;-76
2022/07/13 06:43:07;;;;;;;5.00;2.30;;;;;;;17.01;70.06;98555.01;106097;1279;22661;-76
2022/07/13 06:45:34;;;;;;;2.80;2.00;;;;;;;17.09;70.15;98554.23;106967;1279;22746;-76
2022/07/13 06:48:00;;;;;;;4.20;2.00;;;;;;;17.18;69.83;98550.70;106819;1280;136973;-76
2022/07/13 06:50:27;;;;;;;5.70;2.00;;;;;;;17.27;70.22;98552.30;106838;1280;22556;-76
2022/07/13 06:52:53;;;;;;;6.20;2.70;;;;;;;17.38;70.12;98551.38;107316;1279;137256;-76
2022/07/13 06:55:20;;;;;;;2.90;1.90;;;;;;;17.51;70.32;98553.11;106496;1279;24490;-74
2022/07/13 06:57:47;;;;;;;3.40;2.00;;;;;;;17.64;70.17;98550.56;105859;1279;138160;-76
2022/07/13 07:00:13;;;;;;;3.80;1.80;;;;;;;17.79;69.66;98550.59;106149;1279;22564;-77
2022/07/13 07:02:40;;;;;;;6.00;2.40;;;;;;;17.90;69.00;98548.38;105836;1279;23789;-77
2022/07/13 07:05:11;;;;;;;3.90;2.10;;;;;;;17.99;68.94;98546.95;105774;1279;137973;-76
2022/07/13 07:07:38;;;;;;;3.80;2.10;;;;;;;18.09;68.46;98546.08;106401;1279;24289;-76
2022/07/13 07:10:07;;;;;;;4.80;2.10;;;;;;;18.19;68.43;98544.20;106089;1280;138102;-76
2022/07/13 07:12:33;;;;;;;4.60;1.90;;;;;;;18.28;68.09;98549.55;106729;1280;25313;-76
2022/07/13 07:15:00;;;;;;;5.90;2.00;;;;;;;18.37;67.40;98537.60;106736;1279;22563;-76
2022/07/13 07:17:26;;;;;;;3.10;1.90;;;;;;;18.46;67.31;98539.27;106113;1279;138412;-76
2022/07/13 07:20:06;;;;;;;5.20;2.00;;;;;;;18.57;67.09;98541.15;105803;1279;24088;-76
2022/07/13 07:22:32;;;;;;;2.70;1.80;;;;;;;18.68;66.78;98545.10;106490;1279;137810;-77
2022/07/13 07:24:59;;;;;;;6.30;1.80;;;;;;;18.78;66.66;98544.86;106648;1279;23042;-77
2022/07/13 07:27:26;;;;;;;4.20;1.80;;;;;;;18.88;66.33;98544.69;106893;1279;22550;-77
2022/07/13 07:29:59;;;;;;;2.70;1.50;;;;;;;18.96;65.46;98544.80;106641;1280;138261;-76
2022/07/13 07:32:26;;;;;;;4.00;1.90;;;;;;;19.05;65.13;98540.41;106843;1280;24235;-77
2022/07/13 07:34:59;;;;;;;2.60;1.70;;;;;;;19.11;65.00;98537.95;106135;1280;137855;-76
2022/07/13 07:37:39;;;;;;;2.70;1.80;;;;;;;19.20;65.27;98536.72;105911;1280;22566;-77
2022/07/13 07:40:08;;;;;;;3.10;1.60;;;;;;;19.29;65.55;98534.29;106853;1281;138768;-77
2022/07/13 07:42:35;;;;;;;4.90;1.70;;;;;;;19.41;65.18;98542.80;106716;1279;22557;-77
2022/07/13 07:45:04;;;;;;;3.60;1.80;;;;;;;19.53;64.91;98544.08;105878;1278;23104;-78
2022/07/13 07:47:31;;;;;;;2.80;1.80;;;;;;;19.66;64.06;98545.08;105966;1279;137919;-79
2022/07/13 07:49:57;;;;;;;5.70;1.80;;;;;;;19.77;63.65;98548.16;106794;1280;22587;-77
2022/07/13 07:52:24;;;;;;;3.80;1.80;;;;;;;19.89;63.87;98541.21;106367;1280;138065;-78
2022/07/13 07:54:51;;;;;;;6.50;1.90;;;;;;;20.02;63.08;98538.95;106504;1280;25251;-79
2022/07/13 07:57:21;;;;;;;3.70;1.70;;;;;;;20.12;62.78;98539.16;106114;1279;24879;-78
2022/07/13 07:59:48;;;;;;;4.00;1.60;;;;;;;20.24;62.48;98538.25;106126;1279;138639;-80
2022/07/13 08:02:14;;;;;;;5.30;1.80;;;;;;;20.34;62.18;98534.31;106385;1279;24265;-80
2022/07/13 08:04:44;;;;;;;5.70;1.70;;;;;;;20.45;61.35;98529.63;106840;1279;137974;-79
2022/07/13 08:07:13;;;;;;;3.40;1.30;;;;;;;20.56;62.04;98528.40;106205;1279;22559;-78
2022/07/13 08:09:39;;;;;;;3.70;1.60;;;;;;;20.70;62.04;98531.71;106370;1280;25264;-76
2022/07/13 08:12:06;;;;;;;4.30;1.80;;;;;;;20.79;61.03;98529.92;106025;1279;24429;-78
2022/07/13 08:14:33;;;;;;;4.10;1.70;;;;;;;20.91;59.85;98530.98;106130;1280;22727;-77
2022/07/13 08:17:00;;;;;;;2.50;1.70;;;;;;;21.02;60.02;98526.68;106101;1280;137942;-78
2022/07/13 08:19:26;;;;;;;3.10;1.60;;;;;;;21.16;59.76;98527.10;106356;1279;30491;-78
2022/07/13 08:21:53;;;;;;;4.80;1.80;;;;;;;21.30;59.66;98524.48;105809;1279;137962;-77
2022/07/13 08:24:34;;;;;;;5.20;1.50;;;;;;;21.42;59.23;98520.10;106274;1279;25392;-76
2022/07/13 08:27:01;;;;;;;2.20;1.30;;;;;;;21.54;58.59;98524.41;105901;1279;22563;-78
2022/07/13 08:29:27;;;;;;;3.60;1.60;;;;;;;21.66;57.24;98532.60;105739;1280;137962;-78
2022/07/13 08:31:53;;;;;;;5.30;2.10;;;;;;;21.72;57.08;98533.77;106352;1280;22548;-78
2022/07/13 08:39:40;;;;;;;4.40;1.10;;;;;;;21.99;55.05;98531.95;105793;1279;137926;-80
2022/07/13 08:42:07;;;;;;;2.00;1.20;;;;;;;22.09;54.52;98520.27;106040;1279;23419;-79
2022/07/13 08:44:33;;;;;;;2.00;0.90;;;;;;;22.17;53.32;98525.45;105777;1279;22553;-78
2022/07/13 08:47:15;;;;;;;1.10;0.80;;;;;;;22.25;53.23;98525.53;105903;1279;137340;-79
2022/07/13 08:49:42;;;;;;;7.40;1.20;;;;;;;22.33;52.30;98523.23;105896;1280;22549;-80
2022/07/13 08:52:09;;;;;;;1.50;1.00;;;;;;;22.44;52.32;98523.36;105948;1280;137855;-78
2022/07/13 08:54:36;;;;;;;1.20;0.80;;;;;;;22.54;51.87;98518.55;105939;1280;24347;-79
2022/07/13 08:57:02;;;;;;;2.40;0.70;;;;;;;22.63;51.17;98522.56;105619;1280;22592;-80
2022/07/13 08:59:29;;;;;;;1.70;0.80;;;;;;;22.72;50.16;98529.54;105971;1280;137964;-77
2022/07/13 09:02:10;;;;;;;3.40;1.40;;;;;;;22.81;50.54;98519.20;106165;1279;22552;-79
2022/07/13 09:04:37;;;;;;;2.70;1.10;;;;;;;22.90;51.28;98523.91;105613;1281;137614;-78
2022/07/13 09:07:18;;;;;;;5.30;2.00;;;;;;;23.11;52.69;98524.91;105939;1279;22559;-77
2022/07/13 09:09:44;;;;;;;2.90;1.00;;;;;;;23.29;52.24;98521.05;105841;1279;137597;-75
2022/07/13 09:12:19;;;;;;;2.00;1.00;;;;;;;23.39;49.58;98520.23;106305;1280;25414;-77
2022/07/13 09:15:01;;;;;;;1.40;0.70;;;;;;;23.39;47.90;98520.02;106174;1280;24239;-77
2022/07/13 09:17:47;;;;;;;1.80;0.70;;;;;;;23.41;48.08;98525.95;105780;1280;137618;-79
2022/07/13 09:20:13;;;;;;;6.00;0.90;;;;;;;23.41;47.14;98517.77;106094;1279;25381;-76
2022/07/13 09:22:59;;;;;;;0.90;0.90;;;;;;;23.36;48.20;98523.55;105900;1279;137287;-77
2022/07/13 09:25:37;;;;;;;2.00;0.90;;;;;;;23.40;50.33;98521.30;105938;1279;22550;-77
2022/07/13 09:28:09;;;;;;;2.60;1.00;;;;;;;23.48;50.44;98524.11;105852;1279;138779;-77
2022/07/13 09:30:37;;;;;;;2.80;0.80;;;;;;;23.49;50.08;98525.25;106181;1279;23966;-77
2022/07/13 09:33:05;;;;;;;1.90;0.90;;;;;;;23.59;49.15;98530.86;105900;1280;22577;-77
2022/07/13 09:35:49;;;;;;;1.90;1.00;;;;;;;23.55;48.72;98534.33;105964;1280;137276;-77
2022/07/13 09:38:32;;;;;;;4.40;0.80;;;;;;;23.47;48.37;98529.91;106012;1280;22592;-77
2022/07/13 09:41:16;;;;;;;2.00;0.80;;;;;;;23.52;48.30;98534.27;105981;1279;137367;-78
2022/07/13 09:46:34;;;;;;;2.90;1.00;;;;;;;23.59;48.01;98529.10;105788;1279;137382;-77
2022/07/13 09:49:01;;;;;;;1.90;1.10;;;;;;;23.48;47.33;98535.39;106264;1279;22877;-77
2022/07/13 09:51:30;;;;;;;1.20;0.80;;;;;;;23.50;47.78;98533.41;105964;1281;31039;-77
2022/07/13 09:54:02;;;;;;;1.40;0.80;;;;;;;23.70;47.79;98532.20;106457;1279;137298;-78
2022/07/13 09:56:31;;;;;;;1.80;1.00;;;;;;;23.83;46.83;98537.08;105842;1280;22581;-78
2022/07/13 09:58:59;;;;;;;;;;;;;;;24.04;48.31;98530.03;106928;1279;137368;-76
2022/07/13 10:01:25;;;;;;;1.60;0.90;;;;;;;24.27;47.34;98531.15;107437;1279;25282;-77
2022/07/13 10:04:14;;;;;;;1.90;0.70;;;;;;;24.45;47.29;98533.08;106438;1279;137663;-77
2022/07/13 10:06:43;;;;;;;1.30;0.70;;;;;;;24.58;45.68;98528.02;106274;1281;22598;-79
2022/07/13 10:09:10;;;;;;;4.30;1.10;;;;;;;24.63;44.44;98532.83;107134;1281;24341;-77
2022/07/13 10:11:36;;;;;;;1.30;0.70;;;;;;;24.50;44.40;98533.98;106599;1280;137448;-77
2022/07/13 10:14:06;;;;;;;1.60;0.90;;;;;;;24.39;44.68;98524.08;106093;1280;22630;-76
2022/07/13 10:16:47;;;;;;;1.20;1.10;;;;;;;24.18;45.52;98533.48;106140;1279;137349;-77
2022/07/13 10:19:26;;;;;;;6.10;1.00;;;;;;;23.94;45.59;98543.70;106493;1280;22547;-76
2022/07/13 10:22:13;;;;;;;1.40;0.70;;;;;;;24.03;46.77;98531.92;106109;1280;137935;-77
2022/07/13 10:24:51;;;;;;;1.50;0.90;;;;;;;24.29;46.21;98539.10;106552;1279;23471;-76
2022/07/13 10:27:25;;;;;;;1.50;0.80;;;;;;;24.48;46.03;98521.28;106480;1279;24439;-76
2022/07/13 10:30:14;;;;;;;1.10;0.70;;;;;;;24.73;46.65;98519.77;105725;1283;137675;-76
2022/07/13 10:32:42;;;;;;;;;;;;;;;24.97;45.33;98524.20;106004;1280;30458;-76
2022/07/13 10:35:10;;;;;;;2.00;0.80;;;;;;;25.01;44.64;98520.34;106452;1280;123893;-77
2022/07/13 10:38:01;;;;;;;2.10;0.90;;;;;;;25.16;44.16;98518.39;106344;1280;23066;-76
2022/07/13 10:40:28;;;;;;;1.70;1.00;;;;;;;25.10;44.57;98519.20;106213;1280;137558;-77
2022/07/13 10:43:10;;;;;;;5.30;1.00;;;;;;;25.25;44.49;98523.73;106055;1281;30664;-76
2022/07/13 10:45:39;;;;;;;6.80;1.10;;;;;;;25.36;44.37;98523.54;106007;1279;24282;-77
2022/07/13 10:48:10;;;;;;;2.50;0.90;;;;;;;25.51;43.93;98525.36;106148;1279;137253;-77
2022/07/13 10:50:52;;;;;;;1.60;0.70;;;;;;;25.59;44.13;98528.52;106297;1279;25278;-78
2022/07/13 10:53:21;;;;;;;2.90;1.10;;;;;;;25.66;43.02;98525.65;106489;1280;137353;-77
2022/07/13 10:55:51;;;;;;;2.40;0.90;;;;;;;25.74;42.96;98532.06;106694;1280;24358;-77
2022/07/13 10:58:31;;;;;;;1.00;0.80;;;;;;;25.89;41.90;98527.73;106186;1280;137392;-78
2022/07/13 11:01:36;;;;;;;1.50;0.90;;;;;;;26.06;41.85;98533.52;106631;1280;22567;-77
2022/07/13 11:04:07;;;;;;;1.10;0.70;;;;;;;26.09;41.49;98530.22;105975;1279;137555;-77
2022/07/13 11:06:35;;;;;;;2.10;0.90;;;;;;;26.12;41.26;98536.14;106080;1279;22587;-78
2022/07/13 11:09:07;;;;;;;2.70;0.80;;;;;;;26.14;40.84;98532.70;106183;1279;22746;-78
2022/07/13 11:11:33;;;;;;;3.20;0.90;;;;;;;26.12;40.68;98530.61;105856;1279;137448;-78
2022/07/13 11:14:00;;;;;;;1.70;0.70;;;;;;;26.10;41.50;98532.45;106736;1280;22571;-77
2022/07/13 11:16:48;;;;;;;1.30;0.70;;;;;;;26.16;41.52;98531.86;106108;1280;137440;-75
2022/07/13 11:19:36;;;;;;;1.30;0.90;;;;;;;26.27;40.33;98532.80;105935;1280;25341;-77
2022/07/13 11:22:10;;;;;;;2.80;0.60;;;;;;;26.32;40.14;98525.48;105937;1280;137480;-78
2022/07/13 11:28:15;;;;;;;1.80;0.80;;;;;;;26.46;40.37;98526.96;105920;1280;138173;-77
2022/07/13 11:30:44;;;;;;;1.90;0.80;;;;;;;26.48;39.70;98518.73;106246;1279;23852;-77
2022/07/13 11:33:11;;;;;;;2.00;1.00;;;;;;;26.42;40.08;98518.20;106110;1280;23140;-78
2022/07/13 11:35:38;;;;;;;6.40;1.00;;;;;;;26.61;40.84;98509.11;105797;1280;137460;-78
2022/07/13 11:38:20;;;;;;;1.50;0.80;;;;;;;26.88;39.93;98508.58;106123;1280;22592;-77
2022/07/13 11:40:47;;;;;;;3.10;0.70;;;;;;;27.12;40.05;98501.56;106101;1280;137737;-77
2022/07/13 11:43:14;;;;;;;2.90;1.10;;;;;;;27.35;40.09;98496.59;106216;1280;24227;-77
2022/07/13 11:45:42;;;;;;;1.40;0.60;;;;;;;27.48;39.72;98497.02;105936;1279;137649;-77